sensor_id;sensor_type;location;lat;lon;timestamp;P1;durP1;ratioP1;P2;durP2;ratioP2
69246;SDS011;56358;56.328;43.992;2023-12-20T00:00:27;4.63;;;2.38;;
69246;SDS011;56358;56.328;43.992;2023-12-20T00:02:28;4.22;;;2.17;;
69246;SDS011;56358;56.328;43.992;2023-12-20T00:04:29;6.05;;;2.60;;
69246;SDS011;56358;56.328;43.992;2023-12-20T00:06:30;4.22;;;2.28;;
69246;SDS011;56358;56.328;43.992;2023-12-20T00:08:31;5.15;;;2.40;;
69246;SDS011;56358;56.328;43.992;2023-12-20T00:10:31;4.97;;;2.40;;
69246;SDS011;56358;56.328;43.992;2023-12-20T00:12:32;5.07;;;2.40;;
69246;SDS011;56358;56.328;43.992;2023-12-20T00:14:33;4.03;;;2.00;;
69246;SDS011;56358;56.328;43.992;2023-12-20T00:16:34;4.13;;;2.00;;
69246;SDS011;56358;56.328;43.992;2023-12-20T00:18:34;4.30;;;2.00;;
69246;SDS011;56358;56.328;43.992;2023-12-20T00:20:35;4.57;;;2.05;;
69246;SDS011;56358;56.328;43.992;2023-12-20T00:22:36;3.90;;;2.13;;
69246;SDS011;56358;56.328;43.992;2023-12-20T00:24:37;5.30;;;2.17;;
69246;SDS011;56358;56.328;43.992;2023-12-20T00:26:38;5.25;;;2.30;;
69246;SDS011;56358;56.328;43.992;2023-12-20T00:28:38;6.15;;;2.38;;
69246;SDS011;56358;56.328;43.992;2023-12-20T00:30:39;5.13;;;2.28;;
69246;SDS011;56358;56.328;43.992;2023-12-20T00:32:40;5.68;;;2.40;;
69246;SDS011;56358;56.328;43.992;2023-12-20T00:34:46;5.63;;;2.58;;
69246;SDS011;56358;56.328;43.992;2023-12-20T00:36:47;6.00;;;2.60;;
69246;SDS011;56358;56.328;43.992;2023-12-20T00:38:47;6.60;;;2.58;;
69246;SDS011;56358;56.328;43.992;2023-12-20T00:40:48;5.18;;;2.63;;
69246;SDS011;56358;56.328;43.992;2023-12-20T00:42:50;5.65;;;3.00;;
69246;SDS011;56358;56.328;43.992;2023-12-20T00:44:50;5.75;;;2.63;;
69246;SDS011;56358;56.328;43.992;2023-12-20T00:46:51;6.00;;;2.85;;
69246;SDS011;56358;56.328;43.992;2023-12-20T00:48:52;6.53;;;2.70;;
69246;SDS011;56358;56.328;43.992;2023-12-20T00:50:52;5.78;;;2.42;;
69246;SDS011;56358;56.328;43.992;2023-12-20T00:52:53;5.68;;;2.78;;
69246;SDS011;56358;56.328;43.992;2023-12-20T00:54:55;6.57;;;2.88;;
69246;SDS011;56358;56.328;43.992;2023-12-20T00:56:56;6.50;;;2.65;;
69246;SDS011;56358;56.328;43.992;2023-12-20T00:58:56;6.25;;;3.40;;
69246;SDS011;56358;56.328;43.992;2023-12-20T01:00:57;6.47;;;2.75;;
69246;SDS011;56358;56.328;43.992;2023-12-20T01:02:58;6.13;;;3.00;;
69246;SDS011;56358;56.328;43.992;2023-12-20T01:04:59;6.45;;;3.20;;
69246;SDS011;56358;56.328;43.992;2023-12-20T01:06:59;6.38;;;3.20;;
69246;SDS011;56358;56.328;43.992;2023-12-20T01:09:00;5.57;;;2.85;;
69246;SDS011;56358;56.328;43.992;2023-12-20T01:11:03;5.07;;;2.20;;
69246;SDS011;56358;56.328;43.992;2023-12-20T01:13:04;5.38;;;2.67;;
69246;SDS011;56358;56.328;43.992;2023-12-20T01:15:05;6.40;;;2.50;;
69246;SDS011;56358;56.328;43.992;2023-12-20T01:17:06;5.38;;;2.65;;
69246;SDS011;56358;56.328;43.992;2023-12-20T01:19:07;6.43;;;3.22;;
69246;SDS011;56358;56.328;43.992;2023-12-20T01:21:07;5.35;;;2.55;;
69246;SDS011;56358;56.328;43.992;2023-12-20T01:23:08;6.50;;;2.30;;
69246;SDS011;56358;56.328;43.992;2023-12-20T01:25:09;5.28;;;2.70;;
69246;SDS011;56358;56.328;43.992;2023-12-20T01:27:10;5.97;;;2.80;;
69246;SDS011;56358;56.328;43.992;2023-12-20T01:29:10;6.40;;;3.03;;
69246;SDS011;56358;56.328;43.992;2023-12-20T01:31:11;6.50;;;3.38;;
69246;SDS011;56358;56.328;43.992;2023-12-20T01:33:12;5.55;;;2.85;;
69246;SDS011;56358;56.328;43.992;2023-12-20T01:35:12;8.30;;;3.85;;
69246;SDS011;56358;56.328;43.992;2023-12-20T01:37:13;7.32;;;3.38;;
69246;SDS011;56358;56.328;43.992;2023-12-20T01:39:14;8.27;;;4.00;;
69246;SDS011;56358;56.328;43.992;2023-12-20T01:41:15;8.52;;;3.75;;
69246;SDS011;56358;56.328;43.992;2023-12-20T01:43:16;7.40;;;3.72;;
69246;SDS011;56358;56.328;43.992;2023-12-20T01:45:16;7.15;;;3.53;;
69246;SDS011;56358;56.328;43.992;2023-12-20T01:47:17;8.50;;;3.58;;
69246;SDS011;56358;56.328;43.992;2023-12-20T01:49:18;7.05;;;3.45;;
69246;SDS011;56358;56.328;43.992;2023-12-20T01:51:19;8.02;;;3.85;;
69246;SDS011;56358;56.328;43.992;2023-12-20T01:53:21;8.40;;;4.23;;
69246;SDS011;56358;56.328;43.992;2023-12-20T01:55:24;6.75;;;3.15;;
69246;SDS011;56358;56.328;43.992;2023-12-20T01:57:27;8.18;;;3.70;;
69246;SDS011;56358;56.328;43.992;2023-12-20T01:59:28;6.90;;;3.60;;
69246;SDS011;56358;56.328;43.992;2023-12-20T02:01:30;7.07;;;3.72;;
69246;SDS011;56358;56.328;43.992;2023-12-20T02:03:30;7.95;;;3.53;;
69246;SDS011;56358;56.328;43.992;2023-12-20T02:05:32;8.45;;;3.85;;
69246;SDS011;56358;56.328;43.992;2023-12-20T02:07:34;10.85;;;3.92;;
69246;SDS011;56358;56.328;43.992;2023-12-20T02:09:35;9.30;;;3.53;;
69246;SDS011;56358;56.328;43.992;2023-12-20T02:11:36;6.97;;;3.58;;
69246;SDS011;56358;56.328;43.992;2023-12-20T02:13:36;7.78;;;3.33;;
69246;SDS011;56358;56.328;43.992;2023-12-20T02:15:37;7.93;;;3.83;;
69246;SDS011;56358;56.328;43.992;2023-12-20T02:17:39;7.40;;;3.42;;
69246;SDS011;56358;56.328;43.992;2023-12-20T02:19:40;7.22;;;3.42;;
69246;SDS011;56358;56.328;43.992;2023-12-20T02:21:41;6.80;;;3.65;;
69246;SDS011;56358;56.328;43.992;2023-12-20T02:23:42;6.25;;;3.17;;
69246;SDS011;56358;56.328;43.992;2023-12-20T02:25:42;6.00;;;2.80;;
69246;SDS011;56358;56.328;43.992;2023-12-20T02:27:43;7.32;;;3.67;;
69246;SDS011;56358;56.328;43.992;2023-12-20T02:29:44;6.97;;;3.47;;
69246;SDS011;56358;56.328;43.992;2023-12-20T02:31:47;6.72;;;3.10;;
69246;SDS011;56358;56.328;43.992;2023-12-20T02:33:48;5.60;;;3.08;;
69246;SDS011;56358;56.328;43.992;2023-12-20T02:35:49;5.60;;;2.88;;
69246;SDS011;56358;56.328;43.992;2023-12-20T02:37:50;5.03;;;2.83;;
69246;SDS011;56358;56.328;43.992;2023-12-20T02:39:51;6.72;;;3.10;;
69246;SDS011;56358;56.328;43.992;2023-12-20T02:41:51;6.80;;;2.95;;
69246;SDS011;56358;56.328;43.992;2023-12-20T02:43:52;5.68;;;2.55;;
69246;SDS011;56358;56.328;43.992;2023-12-20T02:45:53;5.88;;;2.95;;
69246;SDS011;56358;56.328;43.992;2023-12-20T02:47:53;7.90;;;3.05;;
69246;SDS011;56358;56.328;43.992;2023-12-20T02:49:54;6.47;;;3.22;;
69246;SDS011;56358;56.328;43.992;2023-12-20T02:51:55;6.20;;;3.05;;
69246;SDS011;56358;56.328;43.992;2023-12-20T02:53:56;8.45;;;3.67;;
69246;SDS011;56358;56.328;43.992;2023-12-20T02:55:57;5.63;;;3.20;;
69246;SDS011;56358;56.328;43.992;2023-12-20T02:57:58;7.40;;;3.20;;
69246;SDS011;56358;56.328;43.992;2023-12-20T02:59:59;6.07;;;2.88;;
69246;SDS011;56358;56.328;43.992;2023-12-20T03:01:59;9.00;;;3.75;;
69246;SDS011;56358;56.328;43.992;2023-12-20T03:04:01;6.25;;;3.20;;
69246;SDS011;56358;56.328;43.992;2023-12-20T03:06:01;6.22;;;3.42;;
69246;SDS011;56358;56.328;43.992;2023-12-20T03:08:02;7.10;;;3.15;;
69246;SDS011;56358;56.328;43.992;2023-12-20T03:10:03;5.88;;;2.90;;
69246;SDS011;56358;56.328;43.992;2023-12-20T03:12:05;6.63;;;3.20;;
69246;SDS011;56358;56.328;43.992;2023-12-20T03:14:05;4.78;;;2.53;;
69246;SDS011;56358;56.328;43.992;2023-12-20T03:16:09;6.10;;;3.10;;
69246;SDS011;56358;56.328;43.992;2023-12-20T03:18:13;6.63;;;3.08;;
69246;SDS011;56358;56.328;43.992;2023-12-20T03:20:14;7.03;;;2.63;;
69246;SDS011;56358;56.328;43.992;2023-12-20T03:22:15;7.40;;;3.47;;
69246;SDS011;56358;56.328;43.992;2023-12-20T03:24:16;6.28;;;2.72;;
69246;SDS011;56358;56.328;43.992;2023-12-20T03:26:16;5.72;;;2.63;;
69246;SDS011;56358;56.328;43.992;2023-12-20T03:28:17;6.68;;;3.28;;
69246;SDS011;56358;56.328;43.992;2023-12-20T03:30:19;5.05;;;2.60;;
69246;SDS011;56358;56.328;43.992;2023-12-20T03:32:19;4.40;;;2.60;;
69246;SDS011;56358;56.328;43.992;2023-12-20T03:34:20;4.93;;;2.40;;
69246;SDS011;56358;56.328;43.992;2023-12-20T03:36:21;3.97;;;2.13;;
69246;SDS011;56358;56.328;43.992;2023-12-20T03:38:22;4.05;;;2.15;;
69246;SDS011;56358;56.328;43.992;2023-12-20T03:42:25;5.35;;;2.45;;
69246;SDS011;56358;56.328;43.992;2023-12-20T03:44:26;5.88;;;2.40;;
69246;SDS011;56358;56.328;43.992;2023-12-20T03:46:27;6.32;;;2.65;;
69246;SDS011;56358;56.328;43.992;2023-12-20T03:48:28;9.57;;;2.78;;
69246;SDS011;56358;56.328;43.992;2023-12-20T03:50:28;5.13;;;2.80;;
69246;SDS011;56358;56.328;43.992;2023-12-20T03:52:29;4.97;;;2.70;;
69246;SDS011;56358;56.328;43.992;2023-12-20T03:54:30;7.85;;;3.28;;
69246;SDS011;56358;56.328;43.992;2023-12-20T03:56:31;5.85;;;2.83;;
69246;SDS011;56358;56.328;43.992;2023-12-20T03:58:32;6.95;;;2.75;;
69246;SDS011;56358;56.328;43.992;2023-12-20T04:00:32;4.63;;;2.40;;
69246;SDS011;56358;56.328;43.992;2023-12-20T04:02:33;6.22;;;2.38;;
69246;SDS011;56358;56.328;43.992;2023-12-20T04:04:34;5.32;;;2.50;;
69246;SDS011;56358;56.328;43.992;2023-12-20T04:06:35;7.40;;;2.42;;
69246;SDS011;56358;56.328;43.992;2023-12-20T04:08:35;5.60;;;2.20;;
69246;SDS011;56358;56.328;43.992;2023-12-20T04:10:36;4.20;;;2.30;;
69246;SDS011;56358;56.328;43.992;2023-12-20T04:12:37;4.97;;;2.65;;
69246;SDS011;56358;56.328;43.992;2023-12-20T04:14:38;5.18;;;2.13;;
69246;SDS011;56358;56.328;43.992;2023-12-20T04:16:39;5.05;;;2.58;;
69246;SDS011;56358;56.328;43.992;2023-12-20T04:18:39;4.70;;;2.67;;
69246;SDS011;56358;56.328;43.992;2023-12-20T04:20:40;5.10;;;2.40;;
69246;SDS011;56358;56.328;43.992;2023-12-20T04:22:41;5.00;;;2.33;;
69246;SDS011;56358;56.328;43.992;2023-12-20T04:24:42;4.35;;;2.58;;
69246;SDS011;56358;56.328;43.992;2023-12-20T04:26:43;4.32;;;2.20;;
69246;SDS011;56358;56.328;43.992;2023-12-20T04:28:44;4.22;;;2.45;;
69246;SDS011;56358;56.328;43.992;2023-12-20T04:30:45;4.97;;;2.28;;
69246;SDS011;56358;56.328;43.992;2023-12-20T04:32:45;4.05;;;2.50;;
69246;SDS011;56358;56.328;43.992;2023-12-20T04:34:46;4.53;;;2.17;;
69246;SDS011;56358;56.328;43.992;2023-12-20T04:36:47;3.80;;;1.88;;
69246;SDS011;56358;56.328;43.992;2023-12-20T04:38:47;3.78;;;1.45;;
69246;SDS011;56358;56.328;43.992;2023-12-20T04:40:48;3.88;;;2.00;;
69246;SDS011;56358;56.328;43.992;2023-12-20T04:42:49;2.55;;;1.60;;
69246;SDS011;56358;56.328;43.992;2023-12-20T04:44:50;2.55;;;1.58;;
69246;SDS011;56358;56.328;43.992;2023-12-20T04:46:50;3.05;;;1.85;;
69246;SDS011;56358;56.328;43.992;2023-12-20T04:48:51;4.25;;;2.30;;
69246;SDS011;56358;56.328;43.992;2023-12-20T04:50:52;5.57;;;2.33;;
69246;SDS011;56358;56.328;43.992;2023-12-20T04:52:52;4.60;;;2.38;;
69246;SDS011;56358;56.328;43.992;2023-12-20T04:54:53;3.70;;;2.30;;
69246;SDS011;56358;56.328;43.992;2023-12-20T04:56:54;5.70;;;2.08;;
69246;SDS011;56358;56.328;43.992;2023-12-20T04:58:55;4.97;;;2.25;;
69246;SDS011;56358;56.328;43.992;2023-12-20T05:00:56;5.38;;;2.38;;
69246;SDS011;56358;56.328;43.992;2023-12-20T05:02:57;3.53;;;2.10;;
69246;SDS011;56358;56.328;43.992;2023-12-20T05:04:57;5.15;;;2.47;;
69246;SDS011;56358;56.328;43.992;2023-12-20T05:06:58;4.80;;;2.22;;
69246;SDS011;56358;56.328;43.992;2023-12-20T05:08:59;4.30;;;2.03;;
69246;SDS011;56358;56.328;43.992;2023-12-20T05:10:59;5.97;;;2.45;;
69246;SDS011;56358;56.328;43.992;2023-12-20T05:13:00;8.10;;;2.95;;
69246;SDS011;56358;56.328;43.992;2023-12-20T05:15:01;4.10;;;2.50;;
69246;SDS011;56358;56.328;43.992;2023-12-20T05:17:06;6.60;;;2.50;;
69246;SDS011;56358;56.328;43.992;2023-12-20T05:19:06;4.88;;;2.40;;
69246;SDS011;56358;56.328;43.992;2023-12-20T05:21:07;5.07;;;2.88;;
69246;SDS011;56358;56.328;43.992;2023-12-20T05:23:08;6.95;;;3.03;;
69246;SDS011;56358;56.328;43.992;2023-12-20T05:25:09;7.40;;;3.20;;
69246;SDS011;56358;56.328;43.992;2023-12-20T05:27:09;12.77;;;3.40;;
69246;SDS011;56358;56.328;43.992;2023-12-20T05:29:11;4.75;;;2.08;;
69246;SDS011;56358;56.328;43.992;2023-12-20T05:31:12;4.93;;;2.15;;
69246;SDS011;56358;56.328;43.992;2023-12-20T05:33:12;4.88;;;2.60;;
69246;SDS011;56358;56.328;43.992;2023-12-20T05:35:13;5.85;;;2.63;;
69246;SDS011;56358;56.328;43.992;2023-12-20T05:37:14;6.57;;;2.47;;
69246;SDS011;56358;56.328;43.992;2023-12-20T05:39:15;5.68;;;3.00;;
69246;SDS011;56358;56.328;43.992;2023-12-20T05:41:15;7.10;;;3.03;;
69246;SDS011;56358;56.328;43.992;2023-12-20T05:43:16;5.75;;;2.55;;
69246;SDS011;56358;56.328;43.992;2023-12-20T05:45:17;5.60;;;2.88;;
69246;SDS011;56358;56.328;43.992;2023-12-20T05:47:17;5.50;;;2.58;;
69246;SDS011;56358;56.328;43.992;2023-12-20T05:49:18;6.25;;;2.95;;
69246;SDS011;56358;56.328;43.992;2023-12-20T05:51:19;5.80;;;2.83;;
69246;SDS011;56358;56.328;43.992;2023-12-20T05:53:19;8.65;;;3.30;;
69246;SDS011;56358;56.328;43.992;2023-12-20T05:55:20;5.93;;;3.00;;
69246;SDS011;56358;56.328;43.992;2023-12-20T05:57:21;5.70;;;2.88;;
69246;SDS011;56358;56.328;43.992;2023-12-20T05:59:23;4.35;;;2.20;;
69246;SDS011;56358;56.328;43.992;2023-12-20T06:01:24;8.68;;;2.97;;
69246;SDS011;56358;56.328;43.992;2023-12-20T06:03:24;5.32;;;2.58;;
69246;SDS011;56358;56.328;43.992;2023-12-20T06:05:25;5.30;;;2.67;;
69246;SDS011;56358;56.328;43.992;2023-12-20T06:07:26;6.15;;;3.30;;
69246;SDS011;56358;56.328;43.992;2023-12-20T06:09:26;9.40;;;4.30;;
69246;SDS011;56358;56.328;43.992;2023-12-20T06:11:27;7.55;;;3.53;;
69246;SDS011;56358;56.328;43.992;2023-12-20T06:13:28;10.80;;;5.00;;
69246;SDS011;56358;56.328;43.992;2023-12-20T06:15:29;6.25;;;3.47;;
69246;SDS011;56358;56.328;43.992;2023-12-20T06:17:29;6.55;;;3.40;;
69246;SDS011;56358;56.328;43.992;2023-12-20T06:19:31;10.40;;;4.47;;
69246;SDS011;56358;56.328;43.992;2023-12-20T06:21:32;9.70;;;4.03;;
69246;SDS011;56358;56.328;43.992;2023-12-20T06:23:33;7.95;;;3.38;;
69246;SDS011;56358;56.328;43.992;2023-12-20T06:25:33;7.93;;;3.28;;
69246;SDS011;56358;56.328;43.992;2023-12-20T06:27:34;8.27;;;3.88;;
69246;SDS011;56358;56.328;43.992;2023-12-20T06:29:35;7.47;;;2.88;;
69246;SDS011;56358;56.328;43.992;2023-12-20T06:31:36;9.50;;;4.10;;
69246;SDS011;56358;56.328;43.992;2023-12-20T06:33:37;9.13;;;3.60;;
69246;SDS011;56358;56.328;43.992;2023-12-20T06:35:40;8.23;;;4.07;;
69246;SDS011;56358;56.328;43.992;2023-12-20T06:37:41;8.45;;;3.67;;
69246;SDS011;56358;56.328;43.992;2023-12-20T06:39:45;8.63;;;3.10;;
69246;SDS011;56358;56.328;43.992;2023-12-20T06:41:46;12.07;;;3.72;;
69246;SDS011;56358;56.328;43.992;2023-12-20T06:43:47;8.60;;;3.58;;
69246;SDS011;56358;56.328;43.992;2023-12-20T06:45:47;5.78;;;3.05;;
69246;SDS011;56358;56.328;43.992;2023-12-20T06:47:48;7.60;;;3.55;;
69246;SDS011;56358;56.328;43.992;2023-12-20T06:49:49;5.93;;;3.08;;
69246;SDS011;56358;56.328;43.992;2023-12-20T06:51:49;8.43;;;3.50;;
69246;SDS011;56358;56.328;43.992;2023-12-20T06:53:51;8.05;;;3.42;;
69246;SDS011;56358;56.328;43.992;2023-12-20T06:55:52;6.85;;;3.03;;
69246;SDS011;56358;56.328;43.992;2023-12-20T06:57:53;6.75;;;3.10;;
69246;SDS011;56358;56.328;43.992;2023-12-20T06:59:54;6.65;;;2.92;;
69246;SDS011;56358;56.328;43.992;2023-12-20T07:01:55;6.60;;;2.75;;
69246;SDS011;56358;56.328;43.992;2023-12-20T07:03:56;7.32;;;3.05;;
69246;SDS011;56358;56.328;43.992;2023-12-20T07:05:56;6.18;;;3.30;;
69246;SDS011;56358;56.328;43.992;2023-12-20T07:07:57;6.05;;;3.10;;
69246;SDS011;56358;56.328;43.992;2023-12-20T07:09:58;8.05;;;3.72;;
69246;SDS011;56358;56.328;43.992;2023-12-20T07:11:59;7.65;;;3.55;;
69246;SDS011;56358;56.328;43.992;2023-12-20T07:14:00;7.85;;;3.67;;
69246;SDS011;56358;56.328;43.992;2023-12-20T07:16:01;5.28;;;3.20;;
69246;SDS011;56358;56.328;43.992;2023-12-20T07:18:02;5.07;;;2.67;;
69246;SDS011;56358;56.328;43.992;2023-12-20T07:20:03;7.63;;;3.40;;
69246;SDS011;56358;56.328;43.992;2023-12-20T07:22:06;7.70;;;3.55;;
69246;SDS011;56358;56.328;43.992;2023-12-20T07:24:07;5.15;;;2.80;;
69246;SDS011;56358;56.328;43.992;2023-12-20T07:26:08;4.00;;;2.47;;
69246;SDS011;56358;56.328;43.992;2023-12-20T07:28:08;5.05;;;2.25;;
69246;SDS011;56358;56.328;43.992;2023-12-20T07:30:09;4.10;;;2.22;;
69246;SDS011;56358;56.328;43.992;2023-12-20T07:32:10;6.07;;;2.72;;
69246;SDS011;56358;56.328;43.992;2023-12-20T07:34:11;4.32;;;2.20;;
69246;SDS011;56358;56.328;43.992;2023-12-20T07:36:12;3.85;;;2.35;;
69246;SDS011;56358;56.328;43.992;2023-12-20T07:38:13;4.82;;;2.00;;
69246;SDS011;56358;56.328;43.992;2023-12-20T07:40:13;4.80;;;2.30;;
69246;SDS011;56358;56.328;43.992;2023-12-20T07:42:18;4.85;;;2.28;;
69246;SDS011;56358;56.328;43.992;2023-12-20T07:44:19;4.88;;;2.00;;
69246;SDS011;56358;56.328;43.992;2023-12-20T07:46:20;5.03;;;2.47;;
69246;SDS011;56358;56.328;43.992;2023-12-20T07:48:22;5.05;;;2.78;;
69246;SDS011;56358;56.328;43.992;2023-12-20T07:50:23;6.43;;;2.70;;
69246;SDS011;56358;56.328;43.992;2023-12-20T07:52:24;8.48;;;3.63;;
69246;SDS011;56358;56.328;43.992;2023-12-20T07:54:26;6.87;;;2.90;;
69246;SDS011;56358;56.328;43.992;2023-12-20T07:56:27;3.75;;;2.13;;
69246;SDS011;56358;56.328;43.992;2023-12-20T07:58:28;5.78;;;2.40;;
69246;SDS011;56358;56.328;43.992;2023-12-20T08:00:30;5.50;;;2.20;;
69246;SDS011;56358;56.328;43.992;2023-12-20T08:02:31;5.18;;;2.90;;
69246;SDS011;56358;56.328;43.992;2023-12-20T08:04:31;5.22;;;2.28;;
69246;SDS011;56358;56.328;43.992;2023-12-20T08:06:33;6.93;;;3.03;;
69246;SDS011;56358;56.328;43.992;2023-12-20T08:08:33;7.63;;;2.58;;
69246;SDS011;56358;56.328;43.992;2023-12-20T08:10:35;4.05;;;2.03;;
69246;SDS011;56358;56.328;43.992;2023-12-20T08:12:35;5.65;;;2.42;;
69246;SDS011;56358;56.328;43.992;2023-12-20T08:14:36;5.70;;;2.28;;
69246;SDS011;56358;56.328;43.992;2023-12-20T08:16:37;4.93;;;2.60;;
69246;SDS011;56358;56.328;43.992;2023-12-20T08:18:38;4.68;;;2.60;;
69246;SDS011;56358;56.328;43.992;2023-12-20T08:20:38;4.72;;;2.40;;
69246;SDS011;56358;56.328;43.992;2023-12-20T08:22:39;4.70;;;2.55;;
69246;SDS011;56358;56.328;43.992;2023-12-20T08:24:40;6.82;;;2.97;;
69246;SDS011;56358;56.328;43.992;2023-12-20T08:26:40;5.32;;;2.47;;
69246;SDS011;56358;56.328;43.992;2023-12-20T08:28:41;8.05;;;3.08;;
69246;SDS011;56358;56.328;43.992;2023-12-20T08:30:42;5.47;;;2.50;;
69246;SDS011;56358;56.328;43.992;2023-12-20T08:32:43;7.07;;;2.97;;
69246;SDS011;56358;56.328;43.992;2023-12-20T08:34:43;8.07;;;3.55;;
69246;SDS011;56358;56.328;43.992;2023-12-20T08:36:44;13.40;;;5.43;;
69246;SDS011;56358;56.328;43.992;2023-12-20T08:38:45;10.60;;;4.13;;
69246;SDS011;56358;56.328;43.992;2023-12-20T08:40:46;8.95;;;4.07;;
69246;SDS011;56358;56.328;43.992;2023-12-20T08:42:48;6.88;;;3.30;;
69246;SDS011;56358;56.328;43.992;2023-12-20T08:44:49;6.22;;;3.05;;
69246;SDS011;56358;56.328;43.992;2023-12-20T08:46:50;10.73;;;3.08;;
69246;SDS011;56358;56.328;43.992;2023-12-20T08:48:50;8.30;;;3.00;;
69246;SDS011;56358;56.328;43.992;2023-12-20T08:50:51;8.40;;;3.55;;
69246;SDS011;56358;56.328;43.992;2023-12-20T08:52:52;6.30;;;3.08;;
69246;SDS011;56358;56.328;43.992;2023-12-20T08:54:53;8.18;;;3.03;;
69246;SDS011;56358;56.328;43.992;2023-12-20T08:56:54;5.63;;;2.42;;
69246;SDS011;56358;56.328;43.992;2023-12-20T08:58:55;6.78;;;2.10;;
69246;SDS011;56358;56.328;43.992;2023-12-20T09:00:56;5.22;;;2.20;;
69246;SDS011;56358;56.328;43.992;2023-12-20T09:02:57;6.30;;;2.53;;
69246;SDS011;56358;56.328;43.992;2023-12-20T09:04:58;4.75;;;2.53;;
69246;SDS011;56358;56.328;43.992;2023-12-20T09:06:59;4.03;;;2.45;;
69246;SDS011;56358;56.328;43.992;2023-12-20T09:09:01;7.57;;;2.45;;
69246;SDS011;56358;56.328;43.992;2023-12-20T09:11:02;4.47;;;2.60;;
69246;SDS011;56358;56.328;43.992;2023-12-20T09:13:03;5.57;;;2.40;;
69246;SDS011;56358;56.328;43.992;2023-12-20T09:15:04;3.97;;;2.20;;
69246;SDS011;56358;56.328;43.992;2023-12-20T09:17:07;5.68;;;2.40;;
69246;SDS011;56358;56.328;43.992;2023-12-20T09:19:09;7.80;;;2.85;;
69246;SDS011;56358;56.328;43.992;2023-12-20T09:21:09;6.88;;;2.40;;
69246;SDS011;56358;56.328;43.992;2023-12-20T09:23:10;6.55;;;2.97;;
69246;SDS011;56358;56.328;43.992;2023-12-20T09:25:11;4.05;;;2.35;;
69246;SDS011;56358;56.328;43.992;2023-12-20T09:27:13;6.00;;;3.05;;
69246;SDS011;56358;56.328;43.992;2023-12-20T09:29:13;7.45;;;2.28;;
69246;SDS011;56358;56.328;43.992;2023-12-20T09:31:15;6.32;;;2.35;;
69246;SDS011;56358;56.328;43.992;2023-12-20T09:33:16;5.10;;;2.20;;
69246;SDS011;56358;56.328;43.992;2023-12-20T09:35:17;9.15;;;2.85;;
69246;SDS011;56358;56.328;43.992;2023-12-20T09:37:17;7.78;;;2.55;;
69246;SDS011;56358;56.328;43.992;2023-12-20T09:39:19;6.10;;;2.70;;
69246;SDS011;56358;56.328;43.992;2023-12-20T09:41:23;4.88;;;2.42;;
69246;SDS011;56358;56.328;43.992;2023-12-20T09:43:26;4.20;;;1.90;;
69246;SDS011;56358;56.328;43.992;2023-12-20T09:45:30;5.10;;;2.40;;
69246;SDS011;56358;56.328;43.992;2023-12-20T09:47:31;3.60;;;2.08;;
69246;SDS011;56358;56.328;43.992;2023-12-20T09:49:33;4.28;;;2.10;;
69246;SDS011;56358;56.328;43.992;2023-12-20T09:51:34;3.17;;;1.65;;
69246;SDS011;56358;56.328;43.992;2023-12-20T09:53:36;4.95;;;2.30;;
69246;SDS011;56358;56.328;43.992;2023-12-20T09:55:39;5.28;;;2.30;;
69246;SDS011;56358;56.328;43.992;2023-12-20T09:57:42;6.30;;;2.55;;
69246;SDS011;56358;56.328;43.992;2023-12-20T09:59:43;4.43;;;2.80;;
69246;SDS011;56358;56.328;43.992;2023-12-20T10:01:43;5.70;;;2.50;;
69246;SDS011;56358;56.328;43.992;2023-12-20T10:03:44;8.07;;;2.58;;
69246;SDS011;56358;56.328;43.992;2023-12-20T10:05:45;5.68;;;2.85;;
69246;SDS011;56358;56.328;43.992;2023-12-20T10:07:49;5.30;;;2.65;;
69246;SDS011;56358;56.328;43.992;2023-12-20T10:09:51;6.47;;;2.80;;
69246;SDS011;56358;56.328;43.992;2023-12-20T10:11:56;6.15;;;2.90;;
69246;SDS011;56358;56.328;43.992;2023-12-20T10:14:01;9.85;;;3.70;;
69246;SDS011;56358;56.328;43.992;2023-12-20T10:16:02;7.28;;;2.70;;
69246;SDS011;56358;56.328;43.992;2023-12-20T10:18:03;6.10;;;2.70;;
69246;SDS011;56358;56.328;43.992;2023-12-20T10:20:05;4.97;;;2.60;;
69246;SDS011;56358;56.328;43.992;2023-12-20T10:22:09;6.13;;;3.70;;
69246;SDS011;56358;56.328;43.992;2023-12-20T10:24:11;7.00;;;3.53;;
69246;SDS011;56358;56.328;43.992;2023-12-20T10:26:20;7.65;;;3.70;;
69246;SDS011;56358;56.328;43.992;2023-12-20T10:28:22;5.70;;;3.00;;
69246;SDS011;56358;56.328;43.992;2023-12-20T10:30:26;6.65;;;2.97;;
69246;SDS011;56358;56.328;43.992;2023-12-20T10:32:27;4.70;;;2.85;;
69246;SDS011;56358;56.328;43.992;2023-12-20T10:34:28;5.65;;;2.80;;
69246;SDS011;56358;56.328;43.992;2023-12-20T10:36:30;5.68;;;2.60;;
69246;SDS011;56358;56.328;43.992;2023-12-20T10:38:33;7.22;;;2.50;;
69246;SDS011;56358;56.328;43.992;2023-12-20T10:40:36;5.72;;;2.53;;
69246;SDS011;56358;56.328;43.992;2023-12-20T10:42:37;9.10;;;3.85;;
69246;SDS011;56358;56.328;43.992;2023-12-20T10:44:41;5.18;;;2.75;;
69246;SDS011;56358;56.328;43.992;2023-12-20T10:46:42;7.38;;;2.78;;
69246;SDS011;56358;56.328;43.992;2023-12-20T10:48:50;7.45;;;3.45;;
69246;SDS011;56358;56.328;43.992;2023-12-20T10:50:55;7.35;;;3.35;;
69246;SDS011;56358;56.328;43.992;2023-12-20T10:52:56;7.88;;;3.25;;
69246;SDS011;56358;56.328;43.992;2023-12-20T10:54:58;6.15;;;3.55;;
69246;SDS011;56358;56.328;43.992;2023-12-20T10:56:59;6.25;;;3.15;;
69246;SDS011;56358;56.328;43.992;2023-12-20T10:59:01;6.50;;;3.10;;
69246;SDS011;56358;56.328;43.992;2023-12-20T11:01:06;11.73;;;4.05;;
69246;SDS011;56358;56.328;43.992;2023-12-20T11:03:08;7.50;;;3.47;;
69246;SDS011;56358;56.328;43.992;2023-12-20T11:07:33;8.40;;;3.80;;
69246;SDS011;56358;56.328;43.992;2023-12-20T11:09:36;10.82;;;3.85;;
69246;SDS011;56358;56.328;43.992;2023-12-20T11:14:16;7.72;;;3.03;;
69246;SDS011;56358;56.328;43.992;2023-12-20T11:16:24;5.22;;;2.42;;
69246;SDS011;56358;56.328;43.992;2023-12-20T11:18:29;5.00;;;2.45;;
69246;SDS011;56358;56.328;43.992;2023-12-20T11:20:37;4.82;;;2.50;;
69246;SDS011;56358;56.328;43.992;2023-12-20T11:22:39;4.60;;;2.50;;
69246;SDS011;56358;56.328;43.992;2023-12-20T11:24:53;4.53;;;2.40;;
69246;SDS011;56358;56.328;43.992;2023-12-20T11:26:56;6.97;;;3.35;;
69246;SDS011;56358;56.328;43.992;2023-12-20T11:31:40;5.82;;;2.22;;
69246;SDS011;56358;56.328;43.992;2023-12-20T11:33:41;5.88;;;3.03;;
69246;SDS011;56358;56.328;43.992;2023-12-20T11:35:45;7.22;;;3.30;;
69246;SDS011;56358;56.328;43.992;2023-12-20T11:37:46;6.13;;;3.00;;
69246;SDS011;56358;56.328;43.992;2023-12-20T11:39:54;4.10;;;2.28;;
69246;SDS011;56358;56.328;43.992;2023-12-20T11:41:56;4.10;;;1.95;;
69246;SDS011;56358;56.328;43.992;2023-12-20T11:43:57;4.90;;;2.40;;
69246;SDS011;56358;56.328;43.992;2023-12-20T11:48:06;6.63;;;3.10;;
69246;SDS011;56358;56.328;43.992;2023-12-20T11:50:07;5.93;;;2.42;;
69246;SDS011;56358;56.328;43.992;2023-12-20T11:52:08;6.25;;;2.45;;
69246;SDS011;56358;56.328;43.992;2023-12-20T11:54:09;4.20;;;2.50;;
69246;SDS011;56358;56.328;43.992;2023-12-20T11:56:11;4.88;;;2.30;;
69246;SDS011;56358;56.328;43.992;2023-12-20T11:58:12;7.80;;;3.13;;
69246;SDS011;56358;56.328;43.992;2023-12-20T12:00:13;7.85;;;3.33;;
69246;SDS011;56358;56.328;43.992;2023-12-20T12:02:15;6.85;;;3.03;;
69246;SDS011;56358;56.328;43.992;2023-12-20T12:04:16;6.28;;;2.67;;
69246;SDS011;56358;56.328;43.992;2023-12-20T12:06:18;3.85;;;2.13;;
69246;SDS011;56358;56.328;43.992;2023-12-20T12:08:19;5.57;;;2.50;;
69246;SDS011;56358;56.328;43.992;2023-12-20T12:10:20;4.60;;;2.22;;